sensor_id;sensor_type;location;lat;lon;timestamp;P1;durP1;ratioP1;P2;durP2;ratioP2
71566;SDS011;59403;47.456;19.120;2023-12-04T00:02:22;14.63;;;6.53;;
71566;SDS011;59403;47.456;19.120;2023-12-04T00:04:48;13.75;;;6.95;;
71566;SDS011;59403;47.456;19.120;2023-12-04T00:07:15;14.67;;;6.47;;
71566;SDS011;59403;47.456;19.120;2023-12-04T00:09:42;13.88;;;6.40;;
71566;SDS011;59403;47.456;19.120;2023-12-04T00:12:09;16.70;;;6.72;;
71566;SDS011;59403;47.456;19.120;2023-12-04T00:14:37;14.52;;;6.70;;
71566;SDS011;59403;47.456;19.120;2023-12-04T00:17:03;14.33;;;6.07;;
71566;SDS011;59403;47.456;19.120;2023-12-04T00:19:31;14.13;;;6.65;;
71566;SDS011;59403;47.456;19.120;2023-12-04T00:21:58;14.15;;;6.35;;
71566;SDS011;59403;47.456;19.120;2023-12-04T00:24:25;14.77;;;6.10;;
71566;SDS011;59403;47.456;19.120;2023-12-04T00:26:52;15.27;;;6.82;;
71566;SDS011;59403;47.456;19.120;2023-12-04T00:29:18;15.70;;;6.83;;
71566;SDS011;59403;47.456;19.120;2023-12-04T00:31:45;14.45;;;6.53;;
71566;SDS011;59403;47.456;19.120;2023-12-04T00:34:12;14.07;;;6.80;;
71566;SDS011;59403;47.456;19.120;2023-12-04T00:36:40;14.75;;;6.20;;
71566;SDS011;59403;47.456;19.120;2023-12-04T00:39:07;15.00;;;6.47;;
71566;SDS011;59403;47.456;19.120;2023-12-04T00:41:34;13.90;;;6.63;;
71566;SDS011;59403;47.456;19.120;2023-12-04T00:44:01;14.70;;;6.40;;
71566;SDS011;59403;47.456;19.120;2023-12-04T00:46:28;16.35;;;7.37;;
71566;SDS011;59403;47.456;19.120;2023-12-04T00:48:55;16.10;;;6.28;;
71566;SDS011;59403;47.456;19.120;2023-12-04T00:51:22;13.23;;;6.78;;
71566;SDS011;59403;47.456;19.120;2023-12-04T00:53:50;15.10;;;6.53;;
71566;SDS011;59403;47.456;19.120;2023-12-04T00:56:17;16.25;;;6.55;;
71566;SDS011;59403;47.456;19.120;2023-12-04T00:58:45;15.35;;;7.25;;
71566;SDS011;59403;47.456;19.120;2023-12-04T01:01:12;13.38;;;5.95;;
71566;SDS011;59403;47.456;19.120;2023-12-04T01:03:39;13.13;;;6.10;;
71566;SDS011;59403;47.456;19.120;2023-12-04T01:06:06;16.57;;;6.60;;
71566;SDS011;59403;47.456;19.120;2023-12-04T01:08:33;15.38;;;6.43;;
71566;SDS011;59403;47.456;19.120;2023-12-04T01:11:02;14.02;;;6.60;;
71566;SDS011;59403;47.456;19.120;2023-12-04T01:13:29;14.65;;;6.72;;
71566;SDS011;59403;47.456;19.120;2023-12-04T01:15:55;14.43;;;6.72;;
71566;SDS011;59403;47.456;19.120;2023-12-04T01:18:22;16.43;;;7.17;;
71566;SDS011;59403;47.456;19.120;2023-12-04T01:20:49;16.15;;;7.03;;
71566;SDS011;59403;47.456;19.120;2023-12-04T01:23:16;18.25;;;7.68;;
71566;SDS011;59403;47.456;19.120;2023-12-04T01:25:43;18.30;;;8.05;;
71566;SDS011;59403;47.456;19.120;2023-12-04T01:28:12;16.70;;;7.00;;
71566;SDS011;59403;47.456;19.120;2023-12-04T01:30:39;15.80;;;7.43;;
71566;SDS011;59403;47.456;19.120;2023-12-04T01:33:06;18.15;;;7.62;;
71566;SDS011;59403;47.456;19.120;2023-12-04T01:35:33;16.98;;;7.53;;
71566;SDS011;59403;47.456;19.120;2023-12-04T01:38:00;15.55;;;7.40;;
71566;SDS011;59403;47.456;19.120;2023-12-04T01:40:27;15.40;;;7.20;;
71566;SDS011;59403;47.456;19.120;2023-12-04T01:42:54;17.03;;;8.23;;
71566;SDS011;59403;47.456;19.120;2023-12-04T01:45:22;17.95;;;7.57;;
71566;SDS011;59403;47.456;19.120;2023-12-04T01:47:49;18.37;;;7.75;;
71566;SDS011;59403;47.456;19.120;2023-12-04T01:50:16;17.20;;;8.25;;
71566;SDS011;59403;47.456;19.120;2023-12-04T01:52:44;20.00;;;8.40;;
71566;SDS011;59403;47.456;19.120;2023-12-04T01:55:11;18.63;;;8.23;;
71566;SDS011;59403;47.456;19.120;2023-12-04T01:57:38;18.08;;;8.70;;
71566;SDS011;59403;47.456;19.120;2023-12-04T02:00:06;19.62;;;8.43;;
71566;SDS011;59403;47.456;19.120;2023-12-04T02:05:19;16.08;;;7.72;;
71566;SDS011;59403;47.456;19.120;2023-12-04T02:07:48;17.80;;;8.20;;
71566;SDS011;59403;47.456;19.120;2023-12-04T02:10:15;18.20;;;7.90;;
71566;SDS011;59403;47.456;19.120;2023-12-04T02:12:42;17.15;;;8.13;;
71566;SDS011;59403;47.456;19.120;2023-12-04T02:15:09;18.98;;;8.52;;
71566;SDS011;59403;47.456;19.120;2023-12-04T02:17:36;18.45;;;8.13;;
71566;SDS011;59403;47.456;19.120;2023-12-04T02:20:07;16.77;;;8.37;;
71566;SDS011;59403;47.456;19.120;2023-12-04T02:22:37;17.80;;;7.90;;
71566;SDS011;59403;47.456;19.120;2023-12-04T02:25:06;20.58;;;8.27;;
71566;SDS011;59403;47.456;19.120;2023-12-04T02:27:37;18.55;;;8.23;;
71566;SDS011;59403;47.456;19.120;2023-12-04T02:30:07;15.40;;;7.35;;
71566;SDS011;59403;47.456;19.120;2023-12-04T02:32:39;18.00;;;8.60;;
71566;SDS011;59403;47.456;19.120;2023-12-04T02:35:11;18.55;;;8.23;;
71566;SDS011;59403;47.456;19.120;2023-12-04T02:37:41;16.75;;;7.62;;
71566;SDS011;59403;47.456;19.120;2023-12-04T02:40:11;17.40;;;7.57;;
71566;SDS011;59403;47.456;19.120;2023-12-04T02:42:39;18.20;;;7.75;;
71566;SDS011;59403;47.456;19.120;2023-12-04T02:45:06;17.67;;;7.40;;
71566;SDS011;59403;47.456;19.120;2023-12-04T02:47:34;18.95;;;8.27;;
71566;SDS011;59403;47.456;19.120;2023-12-04T02:50:01;19.55;;;7.85;;
71566;SDS011;59403;47.456;19.120;2023-12-04T02:52:28;17.98;;;7.57;;
71566;SDS011;59403;47.456;19.120;2023-12-04T02:54:55;20.30;;;7.97;;
71566;SDS011;59403;47.456;19.120;2023-12-04T02:57:23;17.93;;;8.57;;
71566;SDS011;59403;47.456;19.120;2023-12-04T02:59:50;17.70;;;8.18;;
71566;SDS011;59403;47.456;19.120;2023-12-04T03:02:17;16.75;;;7.80;;
71566;SDS011;59403;47.456;19.120;2023-12-04T03:04:44;20.17;;;7.65;;
71566;SDS011;59403;47.456;19.120;2023-12-04T03:07:11;16.73;;;7.03;;
71566;SDS011;59403;47.456;19.120;2023-12-04T03:09:41;19.53;;;8.10;;
71566;SDS011;59403;47.456;19.120;2023-12-04T03:12:08;18.35;;;8.15;;
71566;SDS011;59403;47.456;19.120;2023-12-04T03:14:36;18.05;;;7.93;;
71566;SDS011;59403;47.456;19.120;2023-12-04T03:17:03;19.70;;;7.70;;
71566;SDS011;59403;47.456;19.120;2023-12-04T03:19:30;19.60;;;8.27;;
71566;SDS011;59403;47.456;19.120;2023-12-04T03:21:57;20.00;;;8.47;;
71566;SDS011;59403;47.456;19.120;2023-12-04T03:24:24;19.65;;;7.90;;
71566;SDS011;59403;47.456;19.120;2023-12-04T03:26:51;20.85;;;8.40;;
71566;SDS011;59403;47.456;19.120;2023-12-04T03:29:18;20.70;;;8.20;;
71566;SDS011;59403;47.456;19.120;2023-12-04T03:31:46;19.55;;;8.35;;
71566;SDS011;59403;47.456;19.120;2023-12-04T03:34:13;17.97;;;8.13;;
71566;SDS011;59403;47.456;19.120;2023-12-04T03:36:40;16.98;;;7.82;;
71566;SDS011;59403;47.456;19.120;2023-12-04T03:39:07;18.40;;;8.32;;
71566;SDS011;59403;47.456;19.120;2023-12-04T03:41:34;17.05;;;8.38;;
71566;SDS011;59403;47.456;19.120;2023-12-04T03:44:01;18.37;;;8.13;;
71566;SDS011;59403;47.456;19.120;2023-12-04T03:46:28;18.73;;;7.90;;
71566;SDS011;59403;47.456;19.120;2023-12-04T03:48:56;17.70;;;7.97;;
71566;SDS011;59403;47.456;19.120;2023-12-04T03:51:23;19.92;;;8.50;;
71566;SDS011;59403;47.456;19.120;2023-12-04T03:53:50;19.98;;;8.57;;
71566;SDS011;59403;47.456;19.120;2023-12-04T03:56:16;16.85;;;8.52;;
71566;SDS011;59403;47.456;19.120;2023-12-04T03:58:43;19.20;;;8.83;;
71566;SDS011;59403;47.456;19.120;2023-12-04T04:01:10;17.42;;;7.90;;
71566;SDS011;59403;47.456;19.120;2023-12-04T04:03:37;16.37;;;7.75;;
71566;SDS011;59403;47.456;19.120;2023-12-04T04:06:06;19.05;;;8.40;;
71566;SDS011;59403;47.456;19.120;2023-12-04T04:08:33;17.30;;;7.93;;
71566;SDS011;59403;47.456;19.120;2023-12-04T04:11:00;17.27;;;7.87;;
71566;SDS011;59403;47.456;19.120;2023-12-04T04:13:27;18.35;;;8.63;;
71566;SDS011;59403;47.456;19.120;2023-12-04T04:15:54;16.62;;;7.50;;
71566;SDS011;59403;47.456;19.120;2023-12-04T04:18:21;19.27;;;8.32;;
71566;SDS011;59403;47.456;19.120;2023-12-04T04:20:48;20.77;;;8.80;;
71566;SDS011;59403;47.456;19.120;2023-12-04T04:23:16;17.80;;;8.40;;
71566;SDS011;59403;47.456;19.120;2023-12-04T04:25:43;19.05;;;8.10;;
71566;SDS011;59403;47.456;19.120;2023-12-04T04:28:10;19.37;;;8.77;;
71566;SDS011;59403;47.456;19.120;2023-12-04T04:30:37;19.55;;;7.95;;
71566;SDS011;59403;47.456;19.120;2023-12-04T04:33:05;20.48;;;8.40;;
71566;SDS011;59403;47.456;19.120;2023-12-04T04:35:32;17.70;;;9.90;;
71566;SDS011;59403;47.456;19.120;2023-12-04T04:37:59;19.80;;;9.15;;
71566;SDS011;59403;47.456;19.120;2023-12-04T04:40:27;18.52;;;8.73;;
71566;SDS011;59403;47.456;19.120;2023-12-04T04:42:54;20.77;;;8.68;;
71566;SDS011;59403;47.456;19.120;2023-12-04T04:45:21;17.92;;;7.93;;
71566;SDS011;59403;47.456;19.120;2023-12-04T04:47:47;20.77;;;8.90;;
71566;SDS011;59403;47.456;19.120;2023-12-04T04:50:14;20.45;;;8.52;;
71566;SDS011;59403;47.456;19.120;2023-12-04T04:52:41;19.58;;;8.23;;
71566;SDS011;59403;47.456;19.120;2023-12-04T04:55:08;18.80;;;8.27;;
71566;SDS011;59403;47.456;19.120;2023-12-04T04:57:36;20.27;;;9.05;;
71566;SDS011;59403;47.456;19.120;2023-12-04T05:00:04;19.20;;;8.63;;
71566;SDS011;59403;47.456;19.120;2023-12-04T05:02:31;23.58;;;9.13;;
71566;SDS011;59403;47.456;19.120;2023-12-04T05:05:00;19.58;;;9.05;;
71566;SDS011;59403;47.456;19.120;2023-12-04T05:07:29;23.27;;;10.57;;
71566;SDS011;59403;47.456;19.120;2023-12-04T05:09:56;24.30;;;11.15;;
71566;SDS011;59403;47.456;19.120;2023-12-04T05:12:22;27.47;;;11.47;;
71566;SDS011;59403;47.456;19.120;2023-12-04T05:14:51;26.52;;;12.10;;
71566;SDS011;59403;47.456;19.120;2023-12-04T05:17:17;28.80;;;12.77;;
71566;SDS011;59403;47.456;19.120;2023-12-04T05:19:44;29.92;;;12.40;;
71566;SDS011;59403;47.456;19.120;2023-12-04T05:22:11;44.67;;;23.65;;
71566;SDS011;59403;47.456;19.120;2023-12-04T05:24:38;37.43;;;20.13;;
71566;SDS011;59403;47.456;19.120;2023-12-04T05:27:05;37.10;;;18.55;;
71566;SDS011;59403;47.456;19.120;2023-12-04T05:29:32;34.92;;;16.33;;
71566;SDS011;59403;47.456;19.120;2023-12-04T05:32:00;34.85;;;15.02;;
71566;SDS011;59403;47.456;19.120;2023-12-04T05:34:27;37.55;;;16.30;;
71566;SDS011;59403;47.456;19.120;2023-12-04T05:36:54;34.77;;;15.00;;
71566;SDS011;59403;47.456;19.120;2023-12-04T05:39:21;33.45;;;13.68;;
71566;SDS011;59403;47.456;19.120;2023-12-04T05:41:48;33.75;;;15.50;;
71566;SDS011;59403;47.456;19.120;2023-12-04T05:44:15;32.83;;;15.02;;
71566;SDS011;59403;47.456;19.120;2023-12-04T05:46:42;35.60;;;15.27;;
71566;SDS011;59403;47.456;19.120;2023-12-04T05:49:10;29.73;;;13.83;;
71566;SDS011;59403;47.456;19.120;2023-12-04T05:51:37;30.75;;;13.10;;
71566;SDS011;59403;47.456;19.120;2023-12-04T05:54:04;32.60;;;14.32;;
71566;SDS011;59403;47.456;19.120;2023-12-04T05:56:31;30.25;;;14.30;;
71566;SDS011;59403;47.456;19.120;2023-12-04T05:58:58;33.58;;;14.90;;
71566;SDS011;59403;47.456;19.120;2023-12-04T06:01:24;32.43;;;13.70;;
71566;SDS011;59403;47.456;19.120;2023-12-04T06:03:51;31.73;;;14.15;;
71566;SDS011;59403;47.456;19.120;2023-12-04T06:06:20;34.63;;;14.02;;
71566;SDS011;59403;47.456;19.120;2023-12-04T06:08:47;31.30;;;14.40;;
71566;SDS011;59403;47.456;19.120;2023-12-04T06:11:13;30.05;;;14.32;;
71566;SDS011;59403;47.456;19.120;2023-12-04T06:13:41;35.47;;;14.60;;
71566;SDS011;59403;47.456;19.120;2023-12-04T06:16:08;40.03;;;17.00;;
71566;SDS011;59403;47.456;19.120;2023-12-04T06:18:35;38.42;;;16.45;;
71566;SDS011;59403;47.456;19.120;2023-12-04T06:21:02;39.08;;;16.48;;
71566;SDS011;59403;47.456;19.120;2023-12-04T06:23:31;35.55;;;16.15;;
71566;SDS011;59403;47.456;19.120;2023-12-04T06:25:59;36.80;;;16.37;;
71566;SDS011;59403;47.456;19.120;2023-12-04T06:28:26;36.03;;;16.85;;
71566;SDS011;59403;47.456;19.120;2023-12-04T06:30:54;41.90;;;17.65;;
71566;SDS011;59403;47.456;19.120;2023-12-04T06:33:24;38.85;;;16.62;;
71566;SDS011;59403;47.456;19.120;2023-12-04T06:35:51;38.47;;;15.65;;
71566;SDS011;59403;47.456;19.120;2023-12-04T06:38:19;38.73;;;17.70;;
71566;SDS011;59403;47.456;19.120;2023-12-04T06:40:52;38.50;;;17.73;;
71566;SDS011;59403;47.456;19.120;2023-12-04T06:43:20;38.67;;;16.75;;
71566;SDS011;59403;47.456;19.120;2023-12-04T06:45:47;38.58;;;17.25;;
71566;SDS011;59403;47.456;19.120;2023-12-04T06:48:15;34.67;;;15.40;;
71566;SDS011;59403;47.456;19.120;2023-12-04T06:50:42;36.47;;;16.23;;
71566;SDS011;59403;47.456;19.120;2023-12-04T06:53:09;35.15;;;15.20;;
71566;SDS011;59403;47.456;19.120;2023-12-04T06:55:36;35.75;;;16.83;;
71566;SDS011;59403;47.456;19.120;2023-12-04T06:58:04;37.08;;;16.05;;
71566;SDS011;59403;47.456;19.120;2023-12-04T07:00:31;34.60;;;16.52;;
71566;SDS011;59403;47.456;19.120;2023-12-04T07:02:58;35.70;;;16.03;;
71566;SDS011;59403;47.456;19.120;2023-12-04T07:05:25;39.58;;;16.48;;
71566;SDS011;59403;47.456;19.120;2023-12-04T07:07:52;38.40;;;16.42;;
71566;SDS011;59403;47.456;19.120;2023-12-04T07:10:19;48.05;;;17.15;;
71566;SDS011;59403;47.456;19.120;2023-12-04T07:12:46;39.55;;;18.08;;
71566;SDS011;59403;47.456;19.120;2023-12-04T07:15:14;40.00;;;18.53;;
71566;SDS011;59403;47.456;19.120;2023-12-04T07:17:42;40.05;;;18.05;;
71566;SDS011;59403;47.456;19.120;2023-12-04T07:20:09;46.33;;;18.65;;
71566;SDS011;59403;47.456;19.120;2023-12-04T07:22:38;40.45;;;17.85;;
71566;SDS011;59403;47.456;19.120;2023-12-04T07:25:05;42.75;;;19.30;;
71566;SDS011;59403;47.456;19.120;2023-12-04T07:27:33;47.03;;;19.43;;
71566;SDS011;59403;47.456;19.120;2023-12-04T07:30:00;41.90;;;19.65;;
71566;SDS011;59403;47.456;19.120;2023-12-04T07:32:29;51.85;;;19.62;;
71566;SDS011;59403;47.456;19.120;2023-12-04T07:34:57;44.13;;;19.52;;
71566;SDS011;59403;47.456;19.120;2023-12-04T07:37:25;39.85;;;18.27;;
71566;SDS011;59403;47.456;19.120;2023-12-04T07:39:52;44.67;;;19.57;;
71566;SDS011;59403;47.456;19.120;2023-12-04T07:42:19;46.08;;;19.60;;
71566;SDS011;59403;47.456;19.120;2023-12-04T07:44:46;44.83;;;19.95;;
71566;SDS011;59403;47.456;19.120;2023-12-04T07:47:13;50.78;;;21.92;;
71566;SDS011;59403;47.456;19.120;2023-12-04T07:49:42;50.40;;;22.15;;
71566;SDS011;59403;47.456;19.120;2023-12-04T07:52:11;53.67;;;23.17;;
71566;SDS011;59403;47.456;19.120;2023-12-04T07:54:38;48.87;;;23.35;;
71566;SDS011;59403;47.456;19.120;2023-12-04T07:57:05;48.70;;;21.85;;
71566;SDS011;59403;47.456;19.120;2023-12-04T07:59:32;47.55;;;21.55;;
71566;SDS011;59403;47.456;19.120;2023-12-04T08:01:59;48.83;;;22.17;;
71566;SDS011;59403;47.456;19.120;2023-12-04T08:04:26;52.67;;;22.97;;
71566;SDS011;59403;47.456;19.120;2023-12-04T08:06:55;47.58;;;22.10;;
71566;SDS011;59403;47.456;19.120;2023-12-04T08:09:21;47.05;;;20.80;;
71566;SDS011;59403;47.456;19.120;2023-12-04T08:11:48;45.65;;;20.27;;
71566;SDS011;59403;47.456;19.120;2023-12-04T08:14:15;40.08;;;19.87;;
71566;SDS011;59403;47.456;19.120;2023-12-04T08:16:42;38.63;;;18.10;;
71566;SDS011;59403;47.456;19.120;2023-12-04T08:19:09;40.17;;;18.08;;
71566;SDS011;59403;47.456;19.120;2023-12-04T08:21:36;39.85;;;18.75;;
71566;SDS011;59403;47.456;19.120;2023-12-04T08:24:05;40.25;;;17.65;;
71566;SDS011;59403;47.456;19.120;2023-12-04T08:26:32;40.20;;;17.20;;
71566;SDS011;59403;47.456;19.120;2023-12-04T08:28:59;35.07;;;15.83;;
71566;SDS011;59403;47.456;19.120;2023-12-04T08:31:26;33.08;;;15.48;;
71566;SDS011;59403;47.456;19.120;2023-12-04T08:33:52;38.58;;;17.77;;
71566;SDS011;59403;47.456;19.120;2023-12-04T08:36:19;40.63;;;17.80;;
71566;SDS011;59403;47.456;19.120;2023-12-04T08:38:46;42.67;;;18.52;;
71566;SDS011;59403;47.456;19.120;2023-12-04T08:41:15;37.40;;;17.53;;
71566;SDS011;59403;47.456;19.120;2023-12-04T08:43:42;39.38;;;17.83;;
71566;SDS011;59403;47.456;19.120;2023-12-04T08:46:11;43.20;;;18.95;;
71566;SDS011;59403;47.456;19.120;2023-12-04T08:48:39;39.05;;;19.05;;
71566;SDS011;59403;47.456;19.120;2023-12-04T08:51:06;37.72;;;18.00;;
71566;SDS011;59403;47.456;19.120;2023-12-04T08:53:33;36.90;;;17.20;;
71566;SDS011;59403;47.456;19.120;2023-12-04T08:56:00;39.67;;;17.50;;
71566;SDS011;59403;47.456;19.120;2023-12-04T08:58:29;35.65;;;17.25;;
71566;SDS011;59403;47.456;19.120;2023-12-04T09:00:56;39.83;;;17.90;;
71566;SDS011;59403;47.456;19.120;2023-12-04T09:03:23;40.03;;;18.20;;
71566;SDS011;59403;47.456;19.120;2023-12-04T09:05:50;34.70;;;16.87;;
71566;SDS011;59403;47.456;19.120;2023-12-04T09:08:17;39.08;;;17.50;;
71566;SDS011;59403;47.456;19.120;2023-12-04T09:10:44;37.97;;;17.27;;
71566;SDS011;59403;47.456;19.120;2023-12-04T09:13:12;35.58;;;16.87;;
71566;SDS011;59403;47.456;19.120;2023-12-04T09:15:41;36.42;;;17.35;;
71566;SDS011;59403;47.456;19.120;2023-12-04T09:18:08;38.07;;;17.73;;
71566;SDS011;59403;47.456;19.120;2023-12-04T09:20:35;36.47;;;16.35;;
71566;SDS011;59403;47.456;19.120;2023-12-04T09:23:02;33.10;;;15.57;;
71566;SDS011;59403;47.456;19.120;2023-12-04T09:25:28;34.15;;;15.93;;
71566;SDS011;59403;47.456;19.120;2023-12-04T09:27:56;34.45;;;15.15;;
71566;SDS011;59403;47.456;19.120;2023-12-04T09:30:23;34.03;;;14.47;;
71566;SDS011;59403;47.456;19.120;2023-12-04T09:32:51;27.67;;;12.73;;
71566;SDS011;59403;47.456;19.120;2023-12-04T09:35:20;25.62;;;12.13;;
71566;SDS011;59403;47.456;19.120;2023-12-04T09:37:48;26.80;;;12.35;;
71566;SDS011;59403;47.456;19.120;2023-12-04T09:40:16;23.87;;;10.32;;
71566;SDS011;59403;47.456;19.120;2023-12-04T09:42:43;23.87;;;11.33;;
71566;SDS011;59403;47.456;19.120;2023-12-04T09:45:10;21.92;;;10.90;;
71566;SDS011;59403;47.456;19.120;2023-12-04T09:47:38;24.08;;;11.02;;
71566;SDS011;59403;47.456;19.120;2023-12-04T09:50:07;24.23;;;12.20;;
71566;SDS011;59403;47.456;19.120;2023-12-04T09:52:36;24.80;;;12.20;;
71566;SDS011;59403;47.456;19.120;2023-12-04T09:55:03;27.40;;;13.93;;
71566;SDS011;59403;47.456;19.120;2023-12-04T09:57:31;34.10;;;13.07;;
71566;SDS011;59403;47.456;19.120;2023-12-04T10:00:00;23.73;;;11.70;;
71566;SDS011;59403;47.456;19.120;2023-12-04T10:02:28;24.37;;;11.48;;
71566;SDS011;59403;47.456;19.120;2023-12-04T10:04:56;21.35;;;10.85;;
71566;SDS011;59403;47.456;19.120;2023-12-04T10:07:25;22.30;;;10.67;;
71566;SDS011;59403;47.456;19.120;2023-12-04T10:09:52;20.08;;;10.27;;
71566;SDS011;59403;47.456;19.120;2023-12-04T10:12:20;17.80;;;8.60;;
71566;SDS011;59403;47.456;19.120;2023-12-04T10:15:02;22.48;;;9.65;;
71566;SDS011;59403;47.456;19.120;2023-12-04T10:17:33;21.10;;;9.93;;
71566;SDS011;59403;47.456;19.120;2023-12-04T10:20:06;18.60;;;9.07;;
71566;SDS011;59403;47.456;19.120;2023-12-04T10:22:38;21.25;;;9.27;;
71566;SDS011;59403;47.456;19.120;2023-12-04T10:27:52;20.70;;;8.85;;
71566;SDS011;59403;47.456;19.120;2023-12-04T10:30:23;17.50;;;8.38;;
71566;SDS011;59403;47.456;19.120;2023-12-04T10:32:56;18.60;;;8.43;;
71566;SDS011;59403;47.456;19.120;2023-12-04T10:35:25;52.20;;;14.68;;
71566;SDS011;59403;47.456;19.120;2023-12-04T10:37:57;29.02;;;11.60;;
71566;SDS011;59403;47.456;19.120;2023-12-04T10:40:25;16.50;;;8.35;;
71566;SDS011;59403;47.456;19.120;2023-12-04T10:43:09;17.77;;;8.57;;
71566;SDS011;59403;47.456;19.120;2023-12-04T10:45:43;21.37;;;9.13;;
71566;SDS011;59403;47.456;19.120;2023-12-04T10:48:11;19.30;;;8.57;;
71566;SDS011;59403;47.456;19.120;2023-12-04T10:50:41;16.90;;;7.40;;
71566;SDS011;59403;47.456;19.120;2023-12-04T10:53:11;16.15;;;7.62;;
71566;SDS011;59403;47.456;19.120;2023-12-04T10:55:39;17.87;;;7.75;;
71566;SDS011;59403;47.456;19.120;2023-12-04T10:58:06;15.77;;;7.10;;
71566;SDS011;59403;47.456;19.120;2023-12-04T11:00:35;14.85;;;6.72;;
71566;SDS011;59403;47.456;19.120;2023-12-04T11:03:07;15.38;;;7.20;;
71566;SDS011;59403;47.456;19.120;2023-12-04T11:05:37;13.65;;;6.85;;
71566;SDS011;59403;47.456;19.120;2023-12-04T11:08:05;13.18;;;6.70;;
71566;SDS011;59403;47.456;19.120;2023-12-04T11:10:36;13.67;;;6.10;;
71566;SDS011;59403;47.456;19.120;2023-12-04T11:13:10;10.43;;;5.93;;
71566;SDS011;59403;47.456;19.120;2023-12-04T11:15:56;11.60;;;5.82;;
71566;SDS011;59403;47.456;19.120;2023-12-04T11:18:31;11.80;;;6.55;;
71566;SDS011;59403;47.456;19.120;2023-12-04T11:21:07;15.68;;;6.75;;
71566;SDS011;59403;47.456;19.120;2023-12-04T11:23:35;12.63;;;5.93;;
71566;SDS011;59403;47.456;19.120;2023-12-04T11:26:05;14.05;;;6.32;;
71566;SDS011;59403;47.456;19.120;2023-12-04T11:28:37;11.80;;;6.53;;
71566;SDS011;59403;47.456;19.120;2023-12-04T11:31:41;12.50;;;6.55;;
71566;SDS011;59403;47.456;19.120;2023-12-04T11:34:10;10.77;;;5.60;;
71566;SDS011;59403;47.456;19.120;2023-12-04T11:36:41;12.90;;;5.93;;
71566;SDS011;59403;47.456;19.120;2023-12-04T11:39:18;14.15;;;6.30;;
71566;SDS011;59403;47.456;19.120;2023-12-04T11:41:47;13.13;;;6.32;;
71566;SDS011;59403;47.456;19.120;2023-12-04T11:44:14;12.20;;;6.28;;
71566;SDS011;59403;47.456;19.120;2023-12-04T11:46:54;12.45;;;5.57;;
71566;SDS011;59403;47.456;19.120;2023-12-04T11:49:42;11.97;;;6.13;;
71566;SDS011;59403;47.456;19.120;2023-12-04T11:52:09;13.75;;;5.28;;
71566;SDS011;59403;47.456;19.120;2023-12-04T11:54:55;12.05;;;5.85;;
71566;SDS011;59403;47.456;19.120;2023-12-04T11:57:25;9.82;;;5.05;;
71566;SDS011;59403;47.456;19.120;2023-12-04T12:00:03;11.27;;;5.57;;
71566;SDS011;59403;47.456;19.120;2023-12-04T12:02:46;11.13;;;5.60;;
71566;SDS011;59403;47.456;19.120;2023-12-04T12:05:31;10.68;;;5.18;;
71566;SDS011;59403;47.456;19.120;2023-12-04T12:08:04;14.55;;;5.70;;
71566;SDS011;59403;47.456;19.120;2023-12-04T12:10:37;11.35;;;5.62;;
71566;SDS011;59403;47.456;19.120;2023-12-04T12:13:13;13.90;;;6.55;;
71566;SDS011;59403;47.456;19.120;2023-12-04T12:15:42;13.80;;;6.67;;
71566;SDS011;59403;47.456;19.120;2023-12-04T12:18:13;11.43;;;6.03;;
71566;SDS011;59403;47.456;19.120;2023-12-04T12:20:40;11.43;;;5.18;;
71566;SDS011;59403;47.456;19.120;2023-12-04T12:23:10;13.15;;;5.93;;
71566;SDS011;59403;47.456;19.120;2023-12-04T12:25:51;11.43;;;5.90;;
71566;SDS011;59403;47.456;19.120;2023-12-04T12:28:20;11.53;;;6.00;;
71566;SDS011;59403;47.456;19.120;2023-12-04T12:30:49;10.60;;;5.78;;
71566;SDS011;59403;47.456;19.120;2023-12-04T12:33:19;13.10;;;5.30;;
71566;SDS011;59403;47.456;19.120;2023-12-04T12:35:56;13.00;;;5.62;;
71566;SDS011;59403;47.456;19.120;2023-12-04T12:38:28;10.15;;;5.47;;
71566;SDS011;59403;47.456;19.120;2023-12-04T12:40:59;10.40;;;5.87;;
71566;SDS011;59403;47.456;19.120;2023-12-04T12:43:43;12.63;;;5.87;;
71566;SDS011;59403;47.456;19.120;2023-12-04T12:46:15;11.30;;;5.62;;
71566;SDS011;59403;47.456;19.120;2023-12-04T12:55:07;11.37;;;5.87;;
71566;SDS011;59403;47.456;19.120;2023-12-04T12:57:39;9.55;;;5.00;;
71566;SDS011;59403;47.456;19.120;2023-12-04T13:00:20;10.70;;;5.60;;
71566;SDS011;59403;47.456;19.120;2023-12-04T13:02:57;12.98;;;6.05;;
71566;SDS011;59403;47.456;19.120;2023-12-04T13:08:39;15.43;;;6.57;;
71566;SDS011;59403;47.456;19.120;2023-12-04T13:11:06;33.90;;;11.90;;
71566;SDS011;59403;47.456;19.120;2023-12-04T13:13:38;18.25;;;7.30;;
71566;SDS011;59403;47.456;19.120;2023-12-04T13:16:08;12.90;;;6.05;;
71566;SDS011;59403;47.456;19.120;2023-12-04T13:18:49;13.05;;;5.68;;
71566;SDS011;59403;47.456;19.120;2023-12-04T13:21:18;10.67;;;4.83;;
71566;SDS011;59403;47.456;19.120;2023-12-04T13:23:45;16.00;;;6.53;;
71566;SDS011;59403;47.456;19.120;2023-12-04T13:26:12;11.55;;;5.82;;
71566;SDS011;59403;47.456;19.120;2023-12-04T13:28:40;12.57;;;5.80;;
71566;SDS011;59403;47.456;19.120;2023-12-04T13:34:24;13.00;;;6.40;;
71566;SDS011;59403;47.456;19.120;2023-12-04T13:36:54;11.25;;;6.95;;
71566;SDS011;59403;47.456;19.120;2023-12-04T13:39:28;13.10;;;6.05;;
71566;SDS011;59403;47.456;19.120;2023-12-04T13:42:12;12.88;;;5.80;;
71566;SDS011;59403;47.456;19.120;2023-12-04T13:44:57;13.77;;;6.10;;
71566;SDS011;59403;47.456;19.120;2023-12-04T13:47:26;13.47;;;6.80;;
71566;SDS011;59403;47.456;19.120;2023-12-04T13:49:55;13.65;;;6.85;;
71566;SDS011;59403;47.456;19.120;2023-12-04T13:52:30;14.95;;;7.00;;
71566;SDS011;59403;47.456;19.120;2023-12-04T13:54:59;14.35;;;6.78;;
71566;SDS011;59403;47.456;19.120;2023-12-04T13:57:39;16.75;;;7.35;;
71566;SDS011;59403;47.456;19.120;2023-12-04T14:00:26;13.37;;;6.63;;
71566;SDS011;59403;47.456;19.120;2023-12-04T14:03:04;15.32;;;6.80;;
71566;SDS011;59403;47.456;19.120;2023-12-04T14:05:32;17.23;;;7.22;;
71566;SDS011;59403;47.456;19.120;2023-12-04T14:07:59;15.73;;;7.60;;
71566;SDS011;59403;47.456;19.120;2023-12-04T14:10:38;14.57;;;7.37;;
71566;SDS011;59403;47.456;19.120;2023-12-04T14:13:08;19.20;;;8.10;;
71566;SDS011;59403;47.456;19.120;2023-12-04T14:15:36;17.80;;;8.07;;
71566;SDS011;59403;47.456;19.120;2023-12-04T14:21:16;16.48;;;8.10;;
71566;SDS011;59403;47.456;19.120;2023-12-04T14:23:46;16.92;;;8.02;;
71566;SDS011;59403;47.456;19.120;2023-12-04T14:26:15;18.63;;;9.77;;
71566;SDS011;59403;47.456;19.120;2023-12-04T14:28:42;20.48;;;9.85;;
71566;SDS011;59403;47.456;19.120;2023-12-04T14:31:10;22.25;;;10.25;;
71566;SDS011;59403;47.456;19.120;2023-12-04T14:33:39;20.08;;;9.07;;
71566;SDS011;59403;47.456;19.120;2023-12-04T14:36:06;19.52;;;9.07;;
71566;SDS011;59403;47.456;19.120;2023-12-04T14:38:34;20.40;;;9.13;;
71566;SDS011;59403;47.456;19.120;2023-12-04T14:41:03;20.00;;;8.30;;
71566;SDS011;59403;47.456;19.120;2023-12-04T14:43:31;18.98;;;8.80;;
71566;SDS011;59403;47.456;19.120;2023-12-04T14:45:59;20.67;;;8.73;;
71566;SDS011;59403;47.456;19.120;2023-12-04T14:48:26;17.58;;;8.55;;